Time;durP1;ratioP1;P1;durP2;ratioP2;P2;SDS_P1;SDS_P2;PMS_P1;PMS_P2;Temp;Humidity;BMP_temperature;BMP_pressure;BME280_temperature;BME280_humidity;BME280_pressure;Samples;Min_cycle;Max_cycle;Signal;HPM_P1;HPM_P2
2021/05/13 00:00:08;;;;;;;6.20;3.72;;;;;;;9.82;100.00;98393.52;1719943;82;21634;-65
2021/05/13 00:02:38;;;;;;;4.67;3.35;;;;;;;9.78;100.00;98391.38;1721936;82;21068;-65
2021/05/13 00:05:07;;;;;;;4.05;2.90;;;;;;;9.78;100.00;98391.83;1719689;82;21019;-65
2021/05/13 00:07:34;;;;;;;3.72;3.22;;;;;;;9.78;100.00;98389.19;1658763;83;21056;-65
2021/05/13 00:10:02;;;;;;;4.70;3.35;;;;;;;9.76;100.00;98391.84;1719942;82;20906;-65
2021/05/13 00:12:39;;;;;;;7.50;3.95;;;;;;;9.71;100.00;98383.14;1721801;82;20920;-65
2021/05/13 00:15:14;;;;;;;6.28;3.58;;;;;;;9.67;100.00;98385.40;1682568;83;21057;-67
2021/05/13 00:17:42;;;;;;;5.05;4.28;;;;;;;9.63;100.00;98379.75;1745261;80;21024;-67
2021/05/13 00:20:18;;;;;;;4.80;2.95;;;;;;;9.62;100.00;98379.33;1747155;80;21303;-67
2021/05/13 00:22:46;;;;;;;8.73;3.27;;;;;;;9.59;100.00;98378.06;1747232;80;21001;-67
2021/05/13 00:25:16;;;;;;;5.40;3.70;;;;;;;9.60;100.00;98374.98;1746194;80;21731;-67
2021/05/13 00:27:43;;;;;;;4.42;3.58;;;;;;;9.60;100.00;98375.84;1682563;83;21741;-65
2021/05/13 00:30:14;;;;;;;4.03;3.30;;;;;;;9.57;100.00;98365.36;1719571;83;20950;-66
2021/05/13 00:32:41;;;;;;;4.85;4.10;;;;;;;9.55;100.00;98370.23;1746060;82;21031;-67
2021/05/13 00:35:14;;;;;;;4.67;4.17;;;;;;;9.53;100.00;98368.06;1748650;82;20977;-66
2021/05/13 00:37:44;;;;;;;5.25;3.77;;;;;;;9.48;100.00;98362.00;1746892;80;20934;-67
2021/05/13 00:40:17;;;;;;;6.12;4.20;;;;;;;9.45;100.00;98363.75;1749420;81;21547;-67
2021/05/13 00:42:47;;;;;;;4.50;4.00;;;;;;;9.43;100.00;98352.38;1721672;80;21610;-66
2021/05/13 00:45:16;;;;;;;5.05;3.62;;;;;;;9.42;100.00;98353.70;1691403;82;21120;-66
2021/05/13 00:48:01;;;;;;;6.72;3.80;;;;;;;9.42;100.00;98349.31;1721414;82;21028;-66
2021/05/13 00:50:19;;;;;;;5.03;3.65;;;;;;;9.41;100.00;98354.16;1744628;80;20973;-66
2021/05/13 00:52:47;;;;;;;4.05;3.40;;;;;;;9.39;100.00;98351.12;1719184;80;21176;-66
2021/05/13 00:55:16;;;;;;;3.62;3.22;;;;;;;9.39;100.00;98351.99;1716124;82;20922;-66
2021/05/13 00:57:46;;;;;;;4.00;3.45;;;;;;;9.39;100.00;98348.04;1716116;83;21078;-67
2021/05/13 01:03:05;;;;;;;5.25;3.58;;;;;;;9.35;100.00;98354.69;1718383;80;20971;-67
2021/05/13 01:05:31;;;;;;;8.73;4.00;;;;;;;9.31;100.00;98352.55;1715839;82;20957;-67
2021/05/13 01:07:59;;;;;;;5.72;4.30;;;;;;;9.28;100.00;98352.59;1716267;82;21441;-67
2021/05/13 01:10:28;;;;;;;7.47;4.08;;;;;;;9.23;100.00;98352.22;1715957;83;21101;-66
2021/05/13 01:13:00;;;;;;;5.12;4.35;;;;;;;9.18;100.00;98345.71;1736426;80;21495;-66
2021/05/13 01:15:35;;;;;;;8.45;4.35;;;;;;;9.13;100.00;98348.41;1745781;80;20925;-66
2021/05/13 01:20:27;;;;;;;6.25;4.37;;;;;;;9.07;100.00;98347.61;1704044;82;20933;-66
2021/05/13 01:22:56;;;;;;;9.20;4.90;;;;;;;9.05;100.00;98341.50;1727028;82;21530;-66
2021/05/13 01:25:25;;;;;;;5.37;4.67;;;;;;;9.02;100.00;98344.17;1745469;82;21456;-66
2021/05/13 01:28:00;;;;;;;4.67;4.25;;;;;;;9.01;100.00;98345.06;1745724;80;21611;-66
2021/05/13 01:30:29;;;;;;;5.50;4.25;;;;;;;9.00;100.00;98338.06;1745172;82;21539;-66
2021/05/13 01:33:00;;;;;;;5.25;4.05;;;;;;;9.04;100.00;98342.39;1731942;82;20933;-66
2021/05/13 01:35:28;;;;;;;4.90;4.40;;;;;;;9.08;100.00;98334.88;1715956;83;21511;-65
2021/05/13 01:38:04;;;;;;;7.65;4.83;;;;;;;9.11;100.00;98331.77;1716006;82;21499;-65
2021/05/13 01:40:32;;;;;;;6.60;4.92;;;;;;;9.17;100.00;98329.50;1715859;82;20909;-65
2021/05/13 01:43:03;;;;;;;8.38;4.35;;;;;;;9.19;100.00;98323.77;1666870;84;21015;-64
2021/05/13 01:45:40;;;;;;;6.58;4.35;;;;;;;9.23;100.00;98334.67;1717715;82;21498;-68
2021/05/13 01:48:08;;;;;;;5.58;4.67;;;;;;;9.23;100.00;98326.78;1719918;82;21107;-65
2021/05/13 01:50:36;;;;;;;8.38;4.75;;;;;;;9.21;100.00;98324.62;1719484;83;21507;-66
2021/05/13 01:53:06;;;;;;;4.80;4.15;;;;;;;9.20;100.00;98325.95;1721709;82;21088;-67
2021/05/13 01:55:35;;;;;;;5.87;3.98;;;;;;;9.15;100.00;98319.44;1682665;83;20974;-66
2021/05/13 01:58:04;;;;;;;4.17;3.72;;;;;;;9.10;100.00;98329.16;1728268;80;20937;-66
2021/05/13 02:00:34;;;;;;;6.28;4.20;;;;;;;9.06;100.00;98327.45;1749137;80;21669;-67
2021/05/13 02:03:01;;;;;;;4.97;4.17;;;;;;;9.02;100.00;98323.13;1747151;82;20870;-65
2021/05/13 02:05:29;;;;;;;6.97;4.50;;;;;;;8.97;100.00;98317.02;1747013;82;21005;-66
2021/05/13 02:07:56;;;;;;;6.05;4.10;;;;;;;8.94;100.00;98318.38;1749187;80;21044;-65
2021/05/13 02:10:24;;;;;;;5.70;4.00;;;;;;;8.92;100.00;98309.64;1748671;80;21036;-66
2021/05/13 02:12:55;;;;;;;4.20;3.80;;;;;;;8.90;100.00;98307.47;1749129;82;21479;-67
2021/05/13 02:15:24;;;;;;;4.95;4.00;;;;;;;8.87;100.00;98307.06;1747081;80;21008;-65
2021/05/13 02:17:53;;;;;;;4.40;4.00;;;;;;;8.83;100.00;98305.37;1749130;80;21447;-66
2021/05/13 02:20:23;;;;;;;5.92;4.05;;;;;;;8.78;100.00;98306.73;1749336;80;20917;-66
2021/05/13 02:22:54;;;;;;;8.58;4.40;;;;;;;8.74;100.00;98309.43;1747929;80;20865;-61
2021/05/13 02:25:25;;;;;;;5.92;4.37;;;;;;;8.68;100.00;98307.74;1742705;80;20905;-63
2021/05/13 02:27:53;;;;;;;5.92;4.87;;;;;;;8.63;100.00;98308.24;1749061;80;20917;-63
2021/05/13 02:30:21;;;;;;;7.47;4.55;;;;;;;8.60;100.00;98302.16;1749396;80;20910;-63
2021/05/13 02:32:49;;;;;;;6.30;4.42;;;;;;;8.58;100.00;98302.61;1749466;80;20997;-68
2021/05/13 02:35:16;;;;;;;8.85;4.35;;;;;;;8.56;100.00;98300.45;1747462;80;21013;-63
2021/05/13 02:37:44;;;;;;;6.78;4.60;;;;;;;8.56;100.00;98297.82;1720975;82;21114;-63
2021/05/13 02:40:14;;;;;;;10.10;4.62;;;;;;;8.56;100.00;98300.45;1719714;82;21542;-67
2021/05/13 02:42:42;;;;;;;4.83;4.35;;;;;;;8.53;100.00;98297.86;1719610;82;20957;-62
2021/05/13 02:45:11;;;;;;;4.70;4.12;;;;;;;8.53;100.00;98297.86;1719424;82;21017;-62
2021/05/13 02:47:38;;;;;;;4.58;3.92;;;;;;;8.54;100.00;98297.84;1721605;82;20913;-66
2021/05/13 02:50:10;;;;;;;5.70;4.30;;;;;;;8.58;100.00;98299.98;1681213;83;21001;-63
2021/05/13 02:52:38;;;;;;;10.60;4.78;;;;;;;8.62;100.00;98307.81;1719716;82;21494;-69
2021/05/13 02:55:07;;;;;;;14.23;4.62;;;;;;;8.64;100.00;98306.48;1719542;82;20937;-65
2021/05/13 02:57:36;;;;;;;6.92;4.22;;;;;;;8.69;100.00;98309.93;1721975;82;21032;-65
2021/05/13 03:00:34;;;;;;;13.38;4.67;;;;;;;8.70;100.00;98312.54;1682373;83;21038;-65
2021/05/13 03:02:38;;;;;;;19.92;5.20;;;;;;;8.74;100.00;98321.27;1714663;82;21515;-65
2021/05/13 03:05:07;;;;;;;12.10;5.17;;;;;;;8.78;100.00;98319.02;1682215;83;21444;-66
2021/05/13 03:07:40;;;;;;;7.58;4.85;;;;;;;8.82;100.00;98315.02;1721574;82;21053;-63
2021/05/13 03:10:13;;;;;;;7.75;5.10;;;;;;;8.88;100.00;98313.20;1741006;80;21599;-66
2021/05/13 03:12:35;;;;;;;7.10;5.00;;;;;;;8.92;100.00;98319.72;1739997;80;21563;-65
2021/05/13 03:15:02;;;;;;;12.45;5.22;;;;;;;8.98;100.00;98326.20;1719607;82;21110;-68
2021/05/13 03:17:31;;;;;;;10.25;5.33;;;;;;;9.02;100.00;98325.31;1681405;83;21493;-67
2021/05/13 03:19:59;;;;;;;7.12;5.60;;;;;;;9.07;100.00;98323.49;1719507;83;21036;-73
2021/05/13 03:22:27;;;;;;;6.37;5.10;;;;;;;9.10;100.00;98323.89;1734834;82;21009;-68
2021/05/13 03:25:00;;;;;;;8.20;5.37;;;;;;;9.12;100.00;98328.69;1730817;82;20941;-67
2021/05/13 03:29:54;;;;;;;9.60;4.87;;;;;;;9.18;100.00;98337.81;1723506;82;21487;-69
2021/05/13 03:32:24;;;;;;;6.70;4.75;;;;;;;9.20;100.00;98330.77;1718081;82;21044;-68
2021/05/13 03:34:52;;;;;;;7.55;4.72;;;;;;;9.22;100.00;98337.33;1651158;85;21037;-68
2021/05/13 03:37:25;;;;;;;5.62;3.98;;;;;;;9.23;100.00;98337.75;1717634;83;20961;-68
2021/05/13 03:39:50;;;;;;;10.55;4.90;;;;;;;9.23;100.00;98333.36;1719023;83;40133;-67
2021/05/13 03:42:18;;;;;;;6.58;4.95;;;;;;;9.26;100.00;98335.95;1717632;82;21562;-62
2021/05/13 03:44:46;;;;;;;19.12;5.05;;;;;;;9.29;100.00;98332.41;1654199;85;21121;-68
2021/05/13 03:47:13;;;;;;;13.43;5.08;;;;;;;9.32;100.00;98331.05;1680296;84;21001;-67
2021/05/13 03:49:41;;;;;;;6.10;4.53;;;;;;;9.36;100.00;98329.66;1677662;84;21547;-68
2021/05/13 03:52:09;;;;;;;8.78;5.22;;;;;;;9.42;100.00;98332.65;1676094;85;21109;-66
2021/05/13 03:54:37;;;;;;;29.25;5.47;;;;;;;9.48;100.00;98328.64;1676569;85;21001;-66
2021/05/13 03:57:06;;;;;;;68.20;8.20;;;;;;;9.56;100.00;98324.13;1675898;85;21069;-65
2021/05/13 03:59:38;;;;;;;7.47;4.60;;;;;;;9.66;100.00;98320.91;1632204;86;21048;-65
2021/05/13 04:02:12;;;;;;;7.58;4.95;;;;;;;9.77;100.00;98319.84;1675717;84;21132;-66
2021/05/13 04:04:36;;;;;;;9.63;5.17;;;;;;;9.88;100.00;98318.34;1631784;86;21175;-66
2021/05/13 04:07:04;;;;;;;6.87;5.62;;;;;;;9.93;100.00;98323.13;1676873;85;21088;-65
2021/05/13 04:09:32;;;;;;;10.15;5.25;;;;;;;9.92;100.00;98321.35;1631948;86;21103;-65
2021/05/13 04:12:00;;;;;;;5.55;4.97;;;;;;;9.91;100.00;98320.06;1676749;85;20982;-65
2021/05/13 04:14:27;;;;;;;7.67;4.97;;;;;;;9.92;100.00;98319.16;1677679;84;21041;-65
2021/05/13 04:16:56;;;;;;;6.20;4.67;;;;;;;9.95;100.00;98316.06;1633300;86;21458;-65
2021/05/13 04:19:24;;;;;;;11.03;5.20;;;;;;;10.00;100.00;98308.08;1677589;84;21479;-66
2021/05/13 04:21:51;;;;;;;8.90;5.12;;;;;;;10.09;100.00;98308.79;1633433;86;20953;-66
2021/05/13 04:24:19;;;;;;;12.28;5.95;;;;;;;10.09;100.00;98298.25;1677573;85;21492;-66
2021/05/13 04:26:47;;;;;;;9.10;5.92;;;;;;;10.12;100.00;98307.86;1677765;84;20973;-66
2021/05/13 04:29:14;;;;;;;7.00;4.83;;;;;;;10.17;100.00;98305.14;1677638;84;21290;-66
2021/05/13 04:31:41;;;;;;;7.15;5.33;;;;;;;10.23;100.00;98301.11;1633270;86;20949;-66
2021/05/13 04:34:09;;;;;;;6.58;5.78;;;;;;;10.30;100.00;98301.42;1677690;84;20974;-66
2021/05/13 04:36:36;;;;;;;8.80;5.45;;;;;;;10.42;100.00;98299.03;1677728;85;21025;-66
2021/05/13 04:39:05;;;;;;;8.93;5.25;;;;;;;10.51;100.00;98294.45;1677750;85;20915;-66
2021/05/13 04:41:33;;;;;;;6.87;5.22;;;;;;;10.62;100.00;98293.78;1633387;86;21120;-66
2021/05/13 04:44:02;;;;;;;5.65;5.10;;;;;;;10.73;100.00;98296.20;1677766;85;20943;-66
2021/05/13 04:46:32;;;;;;;7.37;5.33;;;;;;;10.83;100.00;98290.29;1681952;84;20957;-67
2021/05/13 04:51:32;;;;;;;9.75;5.42;;;;;;;11.00;100.00;98283.78;1690920;84;20965;-67
2021/05/13 04:54:00;;;;;;;10.25;5.17;;;;;;;11.09;100.00;98285.35;1654822;85;21475;-67
2021/05/13 04:56:27;;;;;;;7.03;4.83;;;;;;;11.17;100.00;98291.33;1718293;83;20933;-67
2021/05/13 04:58:55;;;;;;;19.32;5.85;;;;;;;11.26;100.00;98283.66;1719738;82;21000;-67
2021/05/13 05:01:23;;;;;;;8.48;5.83;;;;;;;11.39;100.00;98289.55;1719793;83;20905;-67
2021/05/13 05:03:50;;;;;;;6.58;4.47;;;;;;;11.51;100.00;98286.63;1719836;82;20910;-68
2021/05/13 05:06:18;;;;;;;6.05;4.20;;;;;;;11.62;100.00;98283.27;1719856;83;21095;-66
2021/05/13 05:08:46;;;;;;;6.65;4.75;;;;;;;11.73;100.00;98290.48;1719753;82;21514;-67
2021/05/13 05:11:16;;;;;;;7.53;5.03;;;;;;;11.78;100.00;98288.63;1719773;82;21608;-67
2021/05/13 05:13:43;;;;;;;5.33;4.83;;;;;;;11.79;100.00;98284.22;1719777;82;21113;-68
2021/05/13 05:16:12;;;;;;;5.75;4.78;;;;;;;11.84;100.00;98291.16;1719717;83;21032;-66
2021/05/13 05:18:40;;;;;;;13.13;4.90;;;;;;;11.94;100.00;98291.34;1719681;83;21109;-66
2021/05/13 05:21:08;;;;;;;6.85;4.58;;;;;;;12.05;100.00;98290.20;1719654;82;20973;-66
2021/05/13 05:23:35;;;;;;;13.25;5.05;;;;;;;12.15;100.00;98292.55;1719675;82;20977;-66
2021/05/13 05:26:03;;;;;;;5.17;4.67;;;;;;;12.24;100.00;98290.12;1719158;82;21506;-66
2021/05/13 05:28:30;;;;;;;22.67;5.33;;;;;;;12.35;100.00;98288.55;1719668;82;20996;-66
2021/05/13 05:30:58;;;;;;;15.93;4.22;;;;;;;12.49;100.00;98287.26;1719657;83;20982;-67
2021/05/13 05:33:26;;;;;;;8.53;4.62;;;;;;;12.70;100.00;98295.50;1719486;83;21037;-66
2021/05/13 05:35:53;;;;;;;11.65;5.03;;;;;;;12.82;100.00;98293.41;1719728;82;20954;-67
2021/05/13 05:38:20;;;;;;;5.08;4.58;;;;;;;12.88;100.00;98285.75;1719726;83;20902;-66
2021/05/13 05:40:48;;;;;;;5.05;4.42;;;;;;;12.93;100.00;98289.99;1719640;82;21597;-67
2021/05/13 05:43:15;;;;;;;30.50;6.00;;;;;;;13.01;100.00;98295.52;1719626;83;21100;-67
2021/05/13 05:45:43;;;;;;;5.40;4.90;;;;;;;13.06;100.00;98289.17;1719633;83;20909;-67
2021/05/13 05:48:11;;;;;;;10.50;4.97;;;;;;;13.13;100.00;98294.69;1719501;83;20906;-67
2021/05/13 05:50:41;;;;;;;6.55;5.05;;;;;;;13.17;100.00;98296.38;1719707;83;21591;-66
2021/05/13 05:53:10;;;;;;;6.35;4.55;;;;;;;13.15;100.00;98299.48;1719648;82;20953;-66
2021/05/13 05:55:38;;;;;;;9.30;4.75;;;;;;;13.11;100.00;98295.66;1719295;83;21088;-67
2021/05/13 05:58:06;;;;;;;10.10;4.60;;;;;;;13.08;100.00;98299.72;1719553;82;21036;-66
2021/05/13 06:00:33;;;;;;;12.25;4.65;;;;;;;13.05;100.00;98304.65;1719615;82;20903;-67
2021/05/13 06:03:01;;;;;;;8.50;4.28;;;;;;;13.05;100.00;98305.97;1719541;83;21005;-67
2021/05/13 06:05:28;;;;;;;4.83;4.33;;;;;;;13.02;100.00;98306.06;1719664;82;20918;-67
2021/05/13 06:07:57;;;;;;;5.95;4.35;;;;;;;12.97;100.00;98301.81;1719719;83;21075;-67
2021/05/13 06:10:24;;;;;;;5.60;4.78;;;;;;;12.91;100.00;98304.19;1719675;83;20902;-66
2021/05/13 06:12:53;;;;;;;8.48;4.75;;;;;;;12.85;100.00;98303.91;1719694;83;21020;-66
2021/05/13 06:15:22;;;;;;;12.35;5.47;;;;;;;12.80;100.00;98308.92;1719646;83;21057;-66
2021/05/13 06:17:50;;;;;;;9.53;3.95;;;;;;;12.75;100.00;98306.83;1719701;82;21014;-66
2021/05/13 06:20:29;;;;;;;6.05;4.45;;;;;;;12.72;100.00;98309.56;1719723;83;21105;-67
2021/05/13 06:22:57;;;;;;;7.58;4.28;;;;;;;12.68;100.00;98309.23;1719680;83;20933;-67
2021/05/13 06:25:26;;;;;;;5.17;4.58;;;;;;;12.61;100.00;98312.50;1719743;82;20972;-66
2021/05/13 06:27:59;;;;;;;6.25;4.80;;;;;;;12.56;100.00;98306.02;1719766;82;21491;-66
2021/05/13 06:30:26;;;;;;;12.05;4.87;;;;;;;12.53;100.00;98304.78;1719921;83;20990;-66
2021/05/13 06:32:54;;;;;;;9.10;5.20;;;;;;;12.50;100.00;98297.39;1719619;82;21101;-66
2021/05/13 06:35:22;;;;;;;10.90;4.30;;;;;;;12.43;100.00;98315.20;1719571;82;20993;-67
2021/05/13 06:37:50;;;;;;;10.48;4.15;;;;;;;12.40;100.00;98305.16;1719176;82;21039;-66
2021/05/13 06:40:18;;;;;;;7.67;4.30;;;;;;;12.37;100.00;98318.47;1707297;83;20964;-66
2021/05/13 06:42:46;;;;;;;6.67;4.20;;;;;;;12.30;100.00;98317.76;1719594;83;21634;-66
2021/05/13 06:45:14;;;;;;;6.22;4.47;;;;;;;12.24;100.00;98317.89;1719701;82;21825;-66
2021/05/13 06:47:43;;;;;;;7.20;4.70;;;;;;;12.19;100.00;98323.75;1719531;83;20874;-66
2021/05/13 06:50:12;;;;;;;5.55;4.45;;;;;;;12.11;100.00;98319.98;1719767;83;20866;-66
2021/05/13 06:52:39;;;;;;;6.33;3.98;;;;;;;12.08;100.00;98318.73;1719597;83;21574;-66
2021/05/13 06:55:08;;;;;;;5.75;5.00;;;;;;;12.08;100.00;98317.41;1719685;83;20993;-66
2021/05/13 06:57:36;;;;;;;8.25;4.80;;;;;;;12.09;100.00;98318.28;1719695;83;21089;-67
2021/05/13 07:00:05;;;;;;;6.90;4.78;;;;;;;12.06;100.00;98317.04;1719624;83;20913;-66
2021/05/13 07:02:34;;;;;;;7.12;4.80;;;;;;;12.05;100.00;98316.17;1719668;83;21004;-67
2021/05/13 07:05:02;;;;;;;7.30;4.60;;;;;;;12.05;100.00;98319.27;1719643;83;20965;-66
2021/05/13 07:07:30;;;;;;;7.15;5.03;;;;;;;12.04;100.00;98324.14;1719326;82;20961;-66
2021/05/13 07:09:57;;;;;;;6.25;4.05;;;;;;;12.03;100.00;98318.44;1719666;83;21103;-66
2021/05/13 07:12:25;;;;;;;4.75;3.65;;;;;;;12.05;100.00;98322.78;1719481;83;21040;-67
2021/05/13 07:14:54;;;;;;;7.40;4.50;;;;;;;12.10;100.00;98322.66;1719667;83;20911;-66
2021/05/13 07:17:21;;;;;;;5.10;4.25;;;;;;;12.14;100.00;98325.19;1719663;83;20889;-66
2021/05/13 07:19:48;;;;;;;5.37;4.10;;;;;;;12.18;100.00;98322.02;1719618;83;20961;-66
2021/05/13 07:22:18;;;;;;;6.95;4.20;;;;;;;12.19;100.00;98319.33;1719654;83;21160;-66
2021/05/13 07:24:45;;;;;;;6.30;3.90;;;;;;;12.22;100.00;98317.06;1719624;82;20917;-67
2021/05/13 07:27:13;;;;;;;4.87;3.30;;;;;;;12.21;100.00;98315.33;1719704;82;21507;-66
2021/05/13 07:29:40;;;;;;;5.42;3.50;;;;;;;12.25;100.00;98315.66;1719617;83;20917;-67
2021/05/13 07:32:07;;;;;;;8.48;3.90;;;;;;;12.29;100.00;98314.66;1719758;82;20993;-66
2021/05/13 07:34:35;;;;;;;6.37;4.17;;;;;;;12.35;100.00;98313.67;1719718;83;21423;-66
2021/05/13 07:37:02;;;;;;;5.22;4.10;;;;;;;12.37;100.00;98318.01;1719728;83;20914;-67
2021/05/13 07:39:30;;;;;;;4.95;3.90;;;;;;;12.37;100.00;98307.88;1719129;83;21588;-66
2021/05/13 07:41:58;;;;;;;4.80;3.83;;;;;;;12.39;100.00;98312.22;1719673;82;21092;-66
2021/05/13 07:44:26;;;;;;;8.60;3.15;;;;;;;12.40;100.00;98308.67;1719609;82;21073;-66
2021/05/13 07:46:56;;;;;;;4.62;3.70;;;;;;;12.43;100.00;98299.33;1718999;82;21101;-67
2021/05/13 07:49:22;;;;;;;5.12;3.62;;;;;;;12.52;100.00;98296.89;1706049;84;20913;-66
2021/05/13 07:51:50;;;;;;;4.65;3.95;;;;;;;12.64;100.00;98289.94;1706133;82;20998;-65
2021/05/13 07:54:19;;;;;;;4.53;3.90;;;;;;;12.77;100.00;98299.71;1706037;84;21546;-66
2021/05/13 07:56:48;;;;;;;6.62;3.85;;;;;;;12.87;100.00;98286.20;1706212;84;20974;-66
2021/05/13 07:59:16;;;;;;;5.35;3.47;;;;;;;12.99;100.00;98287.63;1706036;83;21094;-66
2021/05/13 08:01:43;;;;;;;6.05;3.37;;;;;;;13.06;100.00;98282.55;1706120;84;20910;-66
2021/05/13 08:04:11;;;;;;;4.45;3.50;;;;;;;13.16;100.00;98284.01;1706036;84;20929;-67
2021/05/13 08:06:38;;;;;;;8.35;4.20;;;;;;;13.28;100.00;98281.51;1706188;84;20922;-67
2021/05/13 08:09:06;;;;;;;4.10;3.70;;;;;;;13.38;100.00;98276.80;1706197;83;20863;-67
2021/05/13 08:11:34;;;;;;;7.97;3.90;;;;;;;13.42;100.00;98270.02;1706088;83;21109;-67
2021/05/13 08:14:03;;;;;;;4.15;3.60;;;;;;;13.46;100.00;98275.64;1705996;84;21615;-67
2021/05/13 08:16:30;;;;;;;5.53;3.05;;;;;;;13.52;100.00;98270.59;1706127;83;21631;-67
2021/05/13 08:18:58;;;;;;;7.03;3.77;;;;;;;13.54;100.00;98265.66;1705676;82;21057;-66
2021/05/13 08:21:25;;;;;;;9.85;3.40;;;;;;;13.62;100.00;98269.84;1706250;82;20994;-66
2021/05/13 08:23:52;;;;;;;10.80;3.40;;;;;;;13.66;100.00;98272.34;1706270;83;21093;-66
2021/05/13 08:26:20;;;;;;;3.20;2.90;;;;;;;13.70;100.00;98267.35;1706160;84;21420;-67
2021/05/13 08:28:48;;;;;;;3.27;2.90;;;;;;;13.75;100.00;98262.80;1706256;84;21595;-67
2021/05/13 08:31:15;;;;;;;8.75;3.33;;;;;;;13.80;100.00;98268.81;1706320;82;20879;-67
2021/05/13 08:33:43;;;;;;;5.62;3.00;;;;;;;13.88;100.00;98277.84;1706220;82;20890;-67
2021/05/13 08:36:10;;;;;;;5.55;2.72;;;;;;;13.95;100.00;98268.76;1706228;84;21707;-67
2021/05/13 08:38:39;;;;;;;7.55;3.00;;;;;;;14.04;100.00;98272.42;1706228;84;21495;-67
2021/05/13 08:41:06;;;;;;;4.67;3.20;;;;;;;14.13;100.00;98271.24;1706296;83;21060;-67
2021/05/13 08:43:34;;;;;;;3.87;2.70;;;;;;;14.25;100.00;98273.50;1706271;82;21018;-67
2021/05/13 08:46:01;;;;;;;7.83;2.90;;;;;;;14.36;100.00;98273.13;1706269;84;20923;-67
2021/05/13 08:48:29;;;;;;;4.08;3.00;;;;;;;14.47;100.00;98269.66;1712989;83;21618;-66
2021/05/13 08:50:59;;;;;;;5.00;2.80;;;;;;;14.56;100.00;98262.70;1719643;83;20965;-65
2021/05/13 08:53:28;;;;;;;7.12;2.83;;;;;;;14.63;100.00;98273.49;1719790;83;20969;-68
2021/05/13 08:55:55;;;;;;;21.73;2.80;;;;;;;14.66;100.00;98266.78;1716973;82;21621;-66
2021/05/13 08:58:24;;;;;;;8.38;2.80;;;;;;;14.66;100.00;98268.53;1719720;83;20869;-66
2021/05/13 09:00:56;;;;;;;3.00;2.70;;;;;;;14.65;100.00;98261.03;1719707;83;21048;-67
2021/05/13 09:03:35;;;;;;;4.60;2.70;;;;;;;14.70;100.00;98267.53;1719695;83;20918;-67
2021/05/13 09:06:04;;;;;;;6.03;3.02;;;;;;;14.78;100.00;98268.11;1719648;82;20873;-68
2021/05/13 09:08:32;;;;;;;12.93;2.80;;;;;;;14.85;100.00;98268.75;1719669;82;20917;-68
2021/05/13 09:11:12;;;;;;;20.55;3.00;;;;;;;14.89;99.85;98267.25;1719657;83;20909;-68
2021/05/13 09:13:39;;;;;;;4.53;2.70;;;;;;;14.86;98.58;98256.74;1719026;83;21130;-68
2021/05/13 09:16:35;;;;;;;6.83;2.85;;;;;;;14.85;100.00;98266.09;1719540;82;21040;-67
2021/05/13 09:19:24;;;;;;;6.10;2.52;;;;;;;14.84;98.52;98263.91;1693943;83;20952;-68
2021/05/13 09:22:07;;;;;;;3.08;2.72;;;;;;;14.90;95.44;98275.62;1693458;83;21051;-69
2021/05/13 09:24:48;;;;;;;7.00;3.40;;;;;;;14.97;97.54;98273.14;1710840;82;20961;-69
2021/05/13 09:27:34;;;;;;;3.55;3.22;;;;;;;15.06;98.10;98266.61;1719587;82;21103;-66
2021/05/13 09:30:17;;;;;;;7.35;3.08;;;;;;;15.05;99.39;98261.76;1719582;83;20925;-68
2021/05/13 09:32:46;;;;;;;;;;;;;;;15.02;99.26;98265.86;1722227;83;21492;-67
2021/05/13 09:35:20;;;;;;;4.10;3.10;;;;;;;15.00;97.35;98261.07;1719275;83;20199;-67
2021/05/13 09:37:53;;;;;;;26.15;3.22;;;;;;;14.99;99.56;98262.45;1718267;83;21087;-66
2021/05/13 09:40:42;;;;;;;5.67;3.30;;;;;;;14.93;100.00;98260.03;1718791;83;21079;-67
2021/05/13 09:43:21;;;;;;;3.50;3.10;;;;;;;14.92;98.66;98256.52;1718868;83;21095;-66
2021/05/13 09:46:03;;;;;;;4.80;3.17;;;;;;;14.92;98.71;98271.58;1719701;82;20906;-67
2021/05/13 09:48:40;;;;;;;4.00;3.02;;;;;;;14.83;97.89;98258.65;1714115;83;21294;-67
2021/05/13 09:51:35;;;;;;;5.58;3.35;;;;;;;14.75;97.70;98255.82;1706070;83;21018;-66
2021/05/13 09:54:15;;;;;;;7.00;3.37;;;;;;;14.73;98.34;98258.13;1706157;82;21104;-67
2021/05/13 09:56:50;;;;;;;5.45;2.77;;;;;;;14.73;97.24;98266.09;1706012;82;21578;-67
2021/05/13 09:59:31;;;;;;;6.50;3.00;;;;;;;14.71;95.78;98270.59;1706225;82;20902;-67
2021/05/13 10:01:59;;;;;;;5.30;2.83;;;;;;;14.68;92.45;98258.30;1706102;84;21014;-68
2021/05/13 10:04:27;;;;;;;3.47;3.17;;;;;;;14.65;91.31;98258.84;1706047;82;21024;-67
2021/05/13 10:06:55;;;;;;;20.85;3.30;;;;;;;14.59;90.85;98259.93;1706127;84;21172;-67
2021/05/13 10:09:23;;;;;;;3.50;3.20;;;;;;;14.54;90.45;98263.67;1706062;84;20906;-67
2021/05/13 10:11:53;;;;;;;4.00;3.10;;;;;;;14.48;91.60;98252.81;1706202;82;20914;-67
2021/05/13 10:14:22;;;;;;;5.12;3.60;;;;;;;14.47;90.85;98260.38;1706020;84;20954;-67
2021/05/13 10:16:50;;;;;;;7.53;3.65;;;;;;;14.44;93.05;98267.12;1706176;84;20922;-67
2021/05/13 10:19:29;;;;;;;5.40;3.58;;;;;;;14.33;91.71;98255.98;1706128;83;21090;-67
2021/05/13 10:21:59;;;;;;;5.97;4.00;;;;;;;14.23;92.37;98250.60;1706042;84;20945;-67
2021/05/13 10:24:26;;;;;;;5.15;3.80;;;;;;;14.11;94.42;98251.87;1706062;84;20977;-67
2021/05/13 10:26:54;;;;;;;4.42;3.67;;;;;;;14.05;95.00;98254.27;1705999;82;21503;-69
2021/05/13 10:29:26;;;;;;;7.05;4.05;;;;;;;14.06;97.18;98253.81;1706056;83;21487;-67
2021/05/13 10:32:22;;;;;;;11.57;3.83;;;;;;;14.07;99.43;98260.38;1706134;83;21145;-69
2021/05/13 10:34:56;;;;;;;5.37;3.65;;;;;;;14.09;100.00;98250.59;1706063;84;20914;-68
2021/05/13 10:37:43;;;;;;;7.30;3.42;;;;;;;14.17;100.00;98245.02;1706106;82;20914;-68
2021/05/13 10:43:05;;;;;;;4.55;3.87;;;;;;;14.24;98.63;98254.53;1706114;83;21045;-67
2021/05/13 10:45:34;;;;;;;10.65;4.05;;;;;;;14.33;98.55;98254.66;1706147;84;21117;-66
2021/05/13 10:48:22;;;;;;;7.97;3.90;;;;;;;14.38;98.83;98250.92;1706011;83;20874;-66
2021/05/13 10:50:59;;;;;;;4.20;3.80;;;;;;;14.41;99.55;98248.63;1706061;82;20989;-66
2021/05/13 10:53:43;;;;;;;4.72;3.72;;;;;;;14.43;99.63;98254.77;1706011;84;20946;-66
2021/05/13 10:56:30;;;;;;;5.37;4.00;;;;;;;14.46;100.00;98254.20;1705528;84;21041;-66
2021/05/13 10:59:09;;;;;;;6.53;4.47;;;;;;;14.49;100.00;98253.22;1706061;84;21105;-66
2021/05/13 11:01:48;;;;;;;5.15;4.65;;;;;;;14.55;100.00;98238.41;1705981;84;21413;-66
2021/05/13 11:04:29;;;;;;;4.85;4.35;;;;;;;14.56;100.00;98237.95;1706101;82;20958;-66
2021/05/13 11:07:05;;;;;;;7.65;4.20;;;;;;;14.59;100.00;98236.50;1706082;82;20910;-68
2021/05/13 11:09:46;;;;;;;5.80;4.05;;;;;;;14.65;100.00;98239.80;1706144;82;21451;-66
2021/05/13 11:12:19;;;;;;;4.70;4.00;;;;;;;14.73;100.00;98231.12;1706133;84;21113;-65
2021/05/13 11:20:38;;;;;;;5.75;4.10;;;;;;;14.97;100.00;98224.47;1706100;82;21040;-65
2021/05/13 11:23:22;;;;;;;22.07;5.08;;;;;;;15.05;100.00;98222.38;1706004;83;21662;-65
2021/05/13 11:26:00;;;;;;;9.73;3.90;;;;;;;15.11;100.00;98223.01;1706151;82;21096;-65
2021/05/13 11:28:50;;;;;;;30.45;5.35;;;;;;;15.18;100.00;98217.48;1704265;83;20878;-66
2021/05/13 11:31:20;;;;;;;7.60;4.55;;;;;;;15.24;100.00;98219.90;1706163;82;20973;-64
2021/05/13 11:33:58;;;;;;;7.45;4.45;;;;;;;15.30;100.00;98220.52;1705993;82;21022;-65
2021/05/13 11:36:32;;;;;;;4.55;4.15;;;;;;;15.38;100.00;98214.44;1705853;82;20993;-64
2021/05/13 11:39:06;;;;;;;8.55;4.70;;;;;;;15.49;100.00;98207.81;1706282;83;21423;-66
2021/05/13 11:41:32;;;;;;;5.22;4.47;;;;;;;15.57;100.00;98215.88;1706209;83;20890;-65
2021/05/13 11:43:59;;;;;;;5.12;4.62;;;;;;;15.64;100.00;98210.77;1706049;84;20918;-65
2021/05/13 11:46:29;;;;;;;5.20;4.40;;;;;;;15.69;100.00;98195.50;1706091;83;20926;-65
2021/05/13 11:48:57;;;;;;;9.28;4.90;;;;;;;15.71;100.00;98192.31;1709933;83;20894;-64
2021/05/13 11:51:27;;;;;;;5.37;4.87;;;;;;;15.74;100.00;98192.17;1719559;83;21113;-64
2021/05/13 11:53:57;;;;;;;26.15;5.45;;;;;;;15.80;100.00;98184.88;1719584;82;20957;-64
2021/05/13 11:56:27;;;;;;;9.18;5.10;;;;;;;15.87;100.00;98185.88;1719622;82;21057;-64
2021/05/13 11:58:59;;;;;;;5.30;4.62;;;;;;;15.97;100.00;98175.23;1719516;82;21005;-66
2021/05/13 12:01:35;;;;;;;5.90;4.58;;;;;;;16.10;100.00;98176.06;1719655;83;21626;-65